Time;durP1;ratioP1;P1;durP2;ratioP2;P2;SDS_P1;SDS_P2;PMS_P1;PMS_P2;Temp;Humidity;BMP_temperature;BMP_pressure;BME280_temperature;BME280_humidity;BME280_pressure;Samples;Min_cycle;Max_cycle;Signal;HPM_P1;HPM_P2
2023/07/17 00:01:17;;;;;;;0.20;0.20;;;18.00;99.90;;;;;;5092932;28;20036;-74
2023/07/17 00:03:44;;;;;;;0.20;0.20;;;18.10;99.90;;;;;;5094056;28;20464;-73
2023/07/17 00:06:09;;;;;;;0.30;0.30;;;18.00;99.90;;;;;;5094030;28;20052;-73
2023/07/17 00:08:35;;;;;;;0.30;0.30;;;18.00;99.90;;;;;;5094077;28;20044;-73
2023/07/17 00:11:01;;;;;;;0.30;0.30;;;18.00;99.90;;;;;;5093654;28;20376;-74
2023/07/17 00:13:27;;;;;;;0.30;0.30;;;18.00;99.90;;;;;;5093408;28;20032;-73
2023/07/17 00:15:53;;;;;;;0.30;0.30;;;18.00;99.90;;;;;;5093977;28;20054;-74
2023/07/17 00:18:19;;;;;;;0.30;0.30;;;17.90;99.90;;;;;;5094137;28;20123;-73
2023/07/17 00:20:44;;;;;;;0.50;0.50;;;17.90;99.90;;;;;;5094170;28;20084;-73
2023/07/17 00:23:10;;;;;;;0.20;0.20;;;17.90;99.90;;;;;;5093831;28;20071;-74
2023/07/17 00:25:36;;;;;;;0.30;0.30;;;17.90;99.90;;;;;;5094029;28;20535;-73
2023/07/17 00:28:02;;;;;;;0.30;0.30;;;17.80;99.90;;;;;;5093782;28;20039;-73
2023/07/17 00:30:28;;;;;;;0.30;0.30;;;17.80;99.90;;;;;;5093777;28;20111;-73
2023/07/17 00:32:53;;;;;;;0.50;0.50;;;17.80;99.90;;;;;;5092619;28;20087;-73
2023/07/17 00:35:19;;;;;;;0.30;0.30;;;17.80;99.90;;;;;;5093982;28;20438;-73
2023/07/17 00:37:46;;;;;;;0.20;0.20;;;17.80;99.90;;;;;;5093685;28;20519;-73
2023/07/17 00:40:12;;;;;;;0.30;0.30;;;17.70;99.90;;;;;;5093456;28;20043;-73
2023/07/17 00:42:38;;;;;;;0.30;0.30;;;17.80;99.90;;;;;;5093619;28;20047;-74
2023/07/17 00:45:05;;;;;;;0.30;0.30;;;17.70;99.90;;;;;;5093363;28;20040;-73
2023/07/17 00:47:32;;;;;;;0.20;0.20;;;17.70;99.90;;;;;;5093525;28;20032;-73
2023/07/17 00:49:58;;;;;;;0.40;0.40;;;17.70;99.90;;;;;;5093549;28;20352;-74
2023/07/17 00:52:25;;;;;;;0.30;0.30;;;17.80;99.90;;;;;;5093645;28;20127;-74
2023/07/17 00:54:51;;;;;;;0.30;0.30;;;17.70;99.90;;;;;;5093397;28;20046;-74
2023/07/17 00:57:18;;;;;;;0.30;0.30;;;17.70;99.90;;;;;;5092379;28;20073;-74
2023/07/17 00:59:45;;;;;;;0.40;0.35;;;17.70;99.90;;;;;;5093423;28;20047;-74
2023/07/17 01:02:12;;;;;;;0.32;0.32;;;17.70;99.90;;;;;;5093449;28;20039;-74
2023/07/17 01:04:44;;;;;;;0.30;0.30;;;17.70;99.90;;;;;;5093747;28;20036;-74
2023/07/17 01:07:10;;;;;;;0.30;0.30;;;17.80;99.90;;;;;;5093523;28;20040;-74
2023/07/17 01:09:35;;;;;;;0.20;0.20;;;17.70;99.90;;;;;;5093424;28;20043;-73
2023/07/17 01:12:01;;;;;;;0.30;0.30;;;17.70;99.90;;;;;;5093360;28;20083;-72
2023/07/17 01:14:28;;;;;;;0.30;0.30;;;17.70;99.90;;;;;;5093688;28;20028;-72
2023/07/17 01:16:54;;;;;;;0.30;0.30;;;17.70;99.90;;;;;;5092953;28;20051;-71
2023/07/17 01:19:20;;;;;;;0.30;0.30;;;17.70;99.90;;;;;;5093680;28;20040;-72
2023/07/17 01:22:00;;;;;;;0.27;0.27;;;17.70;99.90;;;;;;5093421;28;20068;-72
2023/07/17 01:24:26;;;;;;;0.30;0.30;;;17.70;99.90;;;;;;5096233;28;20071;-73
2023/07/17 01:26:52;;;;;;;0.20;0.20;;;17.70;99.90;;;;;;5097131;28;20071;-73
2023/07/17 01:29:17;;;;;;;0.30;0.30;;;17.70;99.90;;;;;;5097455;28;20036;-73
2023/07/17 01:31:43;;;;;;;0.30;0.30;;;17.60;99.90;;;;;;5097043;28;20478;-73
2023/07/17 01:34:10;;;;;;;0.30;0.30;;;17.60;99.90;;;;;;5096679;28;20044;-73
2023/07/17 01:36:35;;;;;;;0.45;0.45;;;17.60;99.90;;;;;;5095733;28;20069;-73
2023/07/17 01:39:01;;;;;;;0.30;0.30;;;17.50;99.90;;;;;;5096681;28;20044;-73
2023/07/17 01:41:27;;;;;;;0.30;0.30;;;17.50;99.90;;;;;;5095873;28;20464;-73
2023/07/17 01:43:53;;;;;;;0.30;0.30;;;17.50;99.90;;;;;;5097120;28;20569;-73
2023/07/17 01:46:18;;;;;;;0.30;0.30;;;17.50;99.90;;;;;;5096758;28;20050;-72
2023/07/17 01:48:44;;;;;;;0.27;0.27;;;17.50;99.90;;;;;;5096688;28;20085;-74
2023/07/17 01:51:10;;;;;;;0.90;0.43;;;17.40;99.90;;;;;;5096619;28;20075;-74
2023/07/17 01:53:36;;;;;;;0.30;0.30;;;17.40;99.90;;;;;;5096600;28;20048;-72
2023/07/17 01:56:02;;;;;;;0.30;0.30;;;17.40;99.90;;;;;;5096553;28;20097;-73
2023/07/17 01:58:28;;;;;;;0.40;0.40;;;17.40;99.90;;;;;;5096724;28;20118;-75
2023/07/17 02:00:55;;;;;;;0.20;0.20;;;17.30;99.90;;;;;;5096728;28;20048;-74
2023/07/17 02:03:20;;;;;;;0.30;0.30;;;17.30;99.90;;;;;;5096309;28;20036;-73
2023/07/17 02:05:46;;;;;;;0.30;0.30;;;17.30;99.90;;;;;;5096391;28;20177;-73
2023/07/17 02:08:12;;;;;;;0.30;0.30;;;17.30;99.90;;;;;;5096444;28;20047;-73
2023/07/17 02:10:42;;;;;;;0.30;0.30;;;17.20;99.90;;;;;;5096183;28;20052;-72
2023/07/17 02:13:08;;;;;;;0.30;0.30;;;17.20;99.90;;;;;;5096247;28;20039;-73
2023/07/17 02:15:33;;;;;;;0.30;0.30;;;17.20;99.90;;;;;;5096130;28;20042;-75
2023/07/17 02:17:59;;;;;;;0.20;0.20;;;17.10;99.90;;;;;;5095936;28;20109;-74
2023/07/17 02:20:25;;;;;;;0.30;0.30;;;17.10;99.90;;;;;;5096104;28;20028;-76
2023/07/17 02:22:50;;;;;;;0.30;0.30;;;17.10;99.90;;;;;;5094841;28;20471;-75
2023/07/17 02:25:17;;;;;;;0.37;0.37;;;17.10;99.90;;;;;;5095917;28;20044;-72
2023/07/17 02:27:43;;;;;;;0.30;0.30;;;17.00;99.90;;;;;;5096034;28;20040;-73
2023/07/17 02:30:09;;;;;;;0.30;0.30;;;17.10;99.90;;;;;;5095965;28;20032;-75
2023/07/17 02:32:35;;;;;;;0.30;0.30;;;17.00;99.90;;;;;;5095656;28;20028;-75
2023/07/17 02:35:00;;;;;;;0.30;0.30;;;17.00;99.90;;;;;;5095238;28;20093;-76
2023/07/17 02:37:26;;;;;;;0.30;0.30;;;17.00;99.90;;;;;;5095779;28;20072;-75
2023/07/17 02:39:52;;;;;;;0.30;0.30;;;17.00;99.90;;;;;;5095712;28;20433;-73
2023/07/17 02:42:18;;;;;;;0.30;0.30;;;16.90;99.90;;;;;;5095705;28;20036;-74
2023/07/17 02:44:44;;;;;;;0.50;0.50;;;16.90;99.90;;;;;;5095786;28;20070;-74
2023/07/17 02:47:10;;;;;;;0.30;0.30;;;16.90;99.90;;;;;;5094316;28;20032;-72
2023/07/17 02:49:37;;;;;;;0.53;0.53;;;16.90;99.90;;;;;;5095527;28;20089;-76
2023/07/17 02:52:04;;;;;;;0.30;0.30;;;16.90;99.90;;;;;;5095492;28;20094;-75
2023/07/17 02:54:30;;;;;;;0.30;0.30;;;16.80;99.90;;;;;;5095369;28;20112;-75
2023/07/17 02:56:56;;;;;;;0.30;0.30;;;16.70;99.90;;;;;;5095388;28;20040;-73
2023/07/17 02:59:22;;;;;;;0.30;0.30;;;16.70;99.90;;;;;;5095803;28;20127;-75
2023/07/17 03:01:48;;;;;;;0.40;0.40;;;16.60;99.90;;;;;;5095413;28;20040;-75
2023/07/17 03:04:14;;;;;;;0.23;0.23;;;16.60;99.90;;;;;;5095176;28;20040;-73
2023/07/17 03:06:40;;;;;;;0.30;0.30;;;16.50;99.90;;;;;;5095269;28;20039;-75
2023/07/17 03:09:05;;;;;;;0.30;0.30;;;16.50;99.90;;;;;;5095115;28;20035;-75
2023/07/17 03:11:31;;;;;;;0.40;0.40;;;16.40;99.90;;;;;;5095576;28;20044;-74
2023/07/17 03:13:57;;;;;;;0.30;0.30;;;16.40;99.90;;;;;;5095022;28;20044;-74
2023/07/17 03:16:23;;;;;;;0.30;0.30;;;16.30;99.90;;;;;;5094877;28;20054;-73
2023/07/17 03:18:48;;;;;;;0.30;0.30;;;16.20;99.90;;;;;;5095065;28;20047;-76
2023/07/17 03:21:14;;;;;;;0.40;0.40;;;16.20;99.90;;;;;;5095093;28;20085;-73
2023/07/17 03:23:40;;;;;;;0.30;0.30;;;16.20;99.90;;;;;;5094951;28;20123;-75
2023/07/17 03:26:05;;;;;;;0.43;0.43;;;16.10;99.90;;;;;;5094811;28;20069;-76
2023/07/17 03:28:31;;;;;;;0.30;0.30;;;16.10;99.90;;;;;;5094770;28;20036;-74
2023/07/17 03:30:57;;;;;;;0.30;0.30;;;16.00;99.90;;;;;;5094525;28;20115;-72
2023/07/17 03:33:23;;;;;;;0.30;0.30;;;16.00;99.90;;;;;;5094758;28;20368;-73
2023/07/17 03:35:48;;;;;;;0.30;0.30;;;16.00;99.90;;;;;;5093804;28;20330;-73
2023/07/17 03:38:14;;;;;;;0.20;0.20;;;16.00;99.90;;;;;;5094543;28;20383;-75
2023/07/17 03:40:39;;;;;;;0.30;0.30;;;15.90;99.90;;;;;;5094955;28;20043;-74
2023/07/17 03:43:05;;;;;;;0.30;0.30;;;15.80;99.90;;;;;;5094465;28;20039;-75
2023/07/17 03:45:31;;;;;;;0.37;0.37;;;15.80;99.90;;;;;;5094550;28;20456;-75
2023/07/17 03:47:56;;;;;;;0.30;0.30;;;15.80;99.90;;;;;;5093457;28;20077;-75
2023/07/17 03:50:22;;;;;;;0.30;0.30;;;15.80;99.90;;;;;;5094537;28;20083;-73
2023/07/17 03:52:48;;;;;;;0.23;0.23;;;15.70;99.90;;;;;;5094328;28;20048;-73
2023/07/17 03:55:13;;;;;;;0.20;0.20;;;15.70;99.90;;;;;;5094146;28;20048;-74
2023/07/17 03:57:39;;;;;;;0.40;0.40;;;15.70;99.90;;;;;;5094326;28;20464;-74
2023/07/17 04:00:09;;;;;;;0.40;0.40;;;15.70;99.90;;;;;;5094437;28;20460;-75
2023/07/17 04:02:38;;;;;;;0.63;0.52;;;15.70;99.90;;;;;;5094254;28;20110;-75
2023/07/17 04:05:03;;;;;;;0.40;0.40;;;15.70;99.90;;;;;;5093982;28;20040;-76
2023/07/17 04:07:29;;;;;;;0.50;0.50;;;15.60;99.90;;;;;;5094162;28;20563;-74
2023/07/17 04:09:55;;;;;;;0.30;0.30;;;15.60;99.90;;;;;;5093804;28;20099;-73
2023/07/17 04:12:20;;;;;;;0.30;0.30;;;15.60;99.90;;;;;;5094001;28;20066;-73
2023/07/17 04:14:46;;;;;;;0.30;0.30;;;15.60;99.90;;;;;;5093966;28;20069;-75
2023/07/17 04:17:12;;;;;;;0.40;0.40;;;15.60;99.90;;;;;;5094026;28;20051;-73
2023/07/17 04:19:37;;;;;;;0.35;0.35;;;15.50;99.90;;;;;;5093955;28;20468;-74
2023/07/17 04:22:03;;;;;;;0.30;0.30;;;15.70;99.90;;;;;;5093827;28;20087;-74
2023/07/17 04:24:28;;;;;;;0.30;0.30;;;15.60;99.90;;;;;;5093667;28;20028;-76
2023/07/17 04:26:54;;;;;;;0.80;0.80;;;15.60;99.90;;;;;;5093891;28;20040;-76
2023/07/17 04:29:23;;;;;;;0.47;0.47;;;15.60;99.90;;;;;;5094268;28;20045;-74
2023/07/17 04:31:49;;;;;;;0.30;0.30;;;15.60;99.90;;;;;;5093568;28;20467;-72
2023/07/17 04:34:15;;;;;;;0.50;0.50;;;15.70;99.90;;;;;;5093949;28;20046;-74
2023/07/17 04:36:41;;;;;;;0.30;0.30;;;15.70;99.90;;;;;;5093537;28;20072;-76
2023/07/17 04:39:07;;;;;;;0.32;0.32;;;15.60;99.90;;;;;;5093654;28;20785;-73
2023/07/17 04:41:32;;;;;;;0.40;0.40;;;15.70;99.90;;;;;;5093675;28;20348;-73
2023/07/17 04:43:58;;;;;;;0.37;0.37;;;15.70;99.90;;;;;;5093484;28;20040;-73
2023/07/17 04:46:25;;;;;;;0.37;0.37;;;15.70;99.90;;;;;;5093802;28;20036;-72
2023/07/17 04:48:50;;;;;;;0.30;0.30;;;15.80;99.90;;;;;;5093683;28;20472;-71
2023/07/17 04:51:16;;;;;;;0.60;0.40;;;15.80;99.90;;;;;;5093813;28;20083;-73
2023/07/17 04:53:42;;;;;;;0.43;0.43;;;15.80;99.90;;;;;;5093590;28;20047;-75
2023/07/17 04:56:07;;;;;;;0.77;0.77;;;15.80;99.90;;;;;;5093633;28;20127;-72
2023/07/17 04:58:33;;;;;;;0.30;0.30;;;15.80;99.90;;;;;;5095059;28;20085;-75
2023/07/17 05:01:03;;;;;;;0.30;0.30;;;15.80;99.90;;;;;;5097859;28;20052;-72
2023/07/17 05:03:30;;;;;;;0.35;0.35;;;15.80;99.90;;;;;;5097506;28;20035;-73
2023/07/17 05:05:56;;;;;;;0.32;0.32;;;15.80;99.90;;;;;;5097339;28;20036;-73
2023/07/17 05:08:24;;;;;;;0.63;0.45;;;15.90;99.90;;;;;;5097487;28;20048;-74
2023/07/17 05:10:54;;;;;;;0.30;0.30;;;15.90;99.90;;;;;;5097636;28;20047;-72
2023/07/17 05:13:20;;;;;;;0.40;0.40;;;15.90;99.90;;;;;;5097760;28;20032;-73
2023/07/17 05:15:46;;;;;;;0.30;0.30;;;15.90;99.90;;;;;;5097337;28;20043;-74
2023/07/17 05:18:11;;;;;;;0.30;0.30;;;16.00;99.90;;;;;;5097297;28;20048;-71
2023/07/17 05:20:37;;;;;;;0.30;0.30;;;15.90;99.90;;;;;;5097377;28;20055;-75
2023/07/17 05:23:03;;;;;;;0.50;0.50;;;16.00;99.90;;;;;;5097098;28;20085;-75
2023/07/17 05:25:28;;;;;;;0.40;0.40;;;16.10;99.90;;;;;;5096960;28;20039;-72
2023/07/17 05:27:54;;;;;;;0.30;0.30;;;16.10;99.90;;;;;;5097508;28;20036;-74
2023/07/17 05:30:19;;;;;;;0.30;0.30;;;16.10;99.90;;;;;;5096806;28;20101;-74
2023/07/17 05:32:45;;;;;;;0.63;0.60;;;16.30;99.90;;;;;;5097165;28;20141;-71
2023/07/17 05:35:11;;;;;;;0.33;0.33;;;16.40;99.90;;;;;;5097084;28;20039;-71
2023/07/17 05:37:36;;;;;;;0.50;0.50;;;16.60;99.90;;;;;;5096983;28;20533;-71
2023/07/17 05:40:03;;;;;;;0.87;0.60;;;16.70;99.90;;;;;;5097463;28;20519;-72
2023/07/17 05:42:29;;;;;;;;;;;16.80;99.90;;;;;;5097310;28;20032;-74
2023/07/17 05:44:54;;;;;;;0.32;0.32;;;17.00;99.90;;;;;;5096743;28;19923;-70
2023/07/17 05:47:20;;;;;;;0.40;0.40;;;17.20;99.90;;;;;;5096823;28;20036;-72
2023/07/17 05:49:46;;;;;;;0.30;0.30;;;17.30;99.90;;;;;;5096668;28;20040;-70
2023/07/17 05:52:11;;;;;;;0.50;0.50;;;17.40;99.90;;;;;;5096659;28;20063;-70
2023/07/17 05:54:37;;;;;;;0.53;0.53;;;17.60;99.90;;;;;;5096618;28;20085;-72
2023/07/17 05:57:03;;;;;;;1.03;0.47;;;17.70;99.90;;;;;;5096563;28;20028;-70
2023/07/17 05:59:28;;;;;;;0.33;0.33;;;17.80;99.90;;;;;;5096836;28;20121;-70
2023/07/17 06:01:54;;;;;;;0.40;0.40;;;18.10;99.90;;;;;;5096649;28;20043;-70
2023/07/17 06:04:19;;;;;;;0.70;0.60;;;18.30;99.90;;;;;;5095691;28;20120;-71
2023/07/17 06:06:45;;;;;;;0.30;0.30;;;18.40;99.90;;;;;;5095909;28;20039;-72
2023/07/17 06:09:11;;;;;;;0.40;0.40;;;18.40;99.90;;;;;;5095473;28;20355;-71
2023/07/17 06:11:36;;;;;;;0.30;0.30;;;18.50;99.90;;;;;;5096322;28;20040;-70
2023/07/17 06:14:02;;;;;;;1.23;0.30;;;18.70;99.90;;;;;;5096191;28;20088;-70
2023/07/17 06:16:28;;;;;;;0.40;0.40;;;18.80;99.90;;;;;;5096429;28;20118;-71
2023/07/17 06:18:53;;;;;;;0.57;0.57;;;18.90;99.90;;;;;;5096330;28;20039;-70
2023/07/17 06:21:19;;;;;;;0.30;0.30;;;18.90;99.90;;;;;;5096064;28;20495;-70
2023/07/17 06:23:45;;;;;;;0.57;0.47;;;19.00;99.90;;;;;;5095991;28;20047;-69
2023/07/17 06:26:10;;;;;;;0.30;0.30;;;19.10;99.90;;;;;;5095992;28;20032;-70
2023/07/17 06:28:36;;;;;;;0.30;0.30;;;19.10;99.90;;;;;;5095655;28;20032;-71
2023/07/17 06:31:02;;;;;;;0.30;0.30;;;19.10;99.90;;;;;;5095882;28;20116;-71
2023/07/17 06:33:27;;;;;;;0.67;0.67;;;19.10;99.90;;;;;;5095832;28;20123;-71
2023/07/17 06:35:53;;;;;;;0.87;0.77;;;19.10;99.90;;;;;;5095915;28;20069;-70
2023/07/17 06:38:18;;;;;;;0.57;0.57;;;19.00;99.90;;;;;;5095649;28;20036;-70
2023/07/17 06:40:44;;;;;;;0.40;0.40;;;19.00;99.90;;;;;;5096143;28;20036;-71
2023/07/17 06:43:10;;;;;;;0.70;0.70;;;19.00;99.90;;;;;;5094220;28;20066;-70
2023/07/17 06:45:36;;;;;;;0.50;0.40;;;19.00;99.90;;;;;;5095642;28;20044;-71
2023/07/17 06:48:01;;;;;;;0.70;0.40;;;19.00;99.90;;;;;;5095552;28;20117;-70
2023/07/17 06:50:27;;;;;;;0.40;0.40;;;19.00;99.90;;;;;;5095601;28;20380;-70
2023/07/17 06:52:52;;;;;;;0.30;0.30;;;19.10;99.90;;;;;;5095479;28;20044;-71
2023/07/17 06:55:19;;;;;;;0.83;0.80;;;19.20;99.90;;;;;;5095647;28;20040;-70
2023/07/17 06:57:45;;;;;;;0.60;0.60;;;19.30;99.90;;;;;;5095447;28;20036;-70
2023/07/17 07:00:11;;;;;;;1.00;0.73;;;19.30;99.90;;;;;;5095739;28;20044;-70
2023/07/17 07:02:37;;;;;;;0.45;0.45;;;19.30;99.90;;;;;;5095384;28;20460;-71
2023/07/17 07:05:03;;;;;;;0.50;0.50;;;19.30;99.90;;;;;;5094925;28;20051;-71
2023/07/17 07:07:28;;;;;;;0.70;0.60;;;19.30;99.90;;;;;;5095089;28;20422;-71
2023/07/17 07:09:54;;;;;;;0.63;0.63;;;19.30;99.90;;;;;;5095150;28;20036;-70
2023/07/17 07:12:20;;;;;;;0.57;0.53;;;19.40;99.90;;;;;;5095052;28;20486;-70
2023/07/17 07:14:46;;;;;;;0.30;0.30;;;19.50;99.90;;;;;;5095480;28;20036;-70
2023/07/17 07:17:12;;;;;;;0.40;0.40;;;19.60;99.90;;;;;;5094706;28;20365;-71
2023/07/17 07:19:38;;;;;;;0.57;0.57;;;19.70;99.90;;;;;;5094908;28;20082;-72
2023/07/17 07:22:03;;;;;;;0.40;0.40;;;19.70;99.90;;;;;;5095126;28;20079;-72
2023/07/17 07:24:29;;;;;;;0.30;0.30;;;19.80;99.90;;;;;;5094558;28;20077;-70
2023/07/17 07:26:55;;;;;;;0.60;0.50;;;19.80;99.90;;;;;;5094803;28;20040;-70
2023/07/17 07:29:21;;;;;;;;;;;19.80;99.90;;;;;;5095099;28;20043;-71
2023/07/17 07:31:47;;;;;;;0.63;0.57;;;19.90;99.90;;;;;;5094689;28;19916;-70
2023/07/17 07:34:13;;;;;;;0.43;0.43;;;19.70;99.90;;;;;;5094644;28;20048;-71
2023/07/17 07:36:38;;;;;;;0.70;0.70;;;19.60;99.90;;;;;;5094637;28;20043;-70
2023/07/17 07:39:07;;;;;;;0.70;0.70;;;19.60;99.90;;;;;;5094574;28;20043;-70
2023/07/17 07:41:34;;;;;;;0.30;0.30;;;19.40;99.90;;;;;;5094469;28;20040;-70
2023/07/17 07:44:00;;;;;;;0.52;0.45;;;19.50;99.90;;;;;;5094388;28;20040;-70
2023/07/17 07:46:27;;;;;;;0.57;0.52;;;19.60;99.90;;;;;;5094477;28;20119;-71
2023/07/17 07:48:52;;;;;;;0.40;0.40;;;19.60;99.90;;;;;;5094636;28;20044;-71
2023/07/17 07:51:18;;;;;;;2.53;0.70;;;19.60;99.90;;;;;;5094325;28;20036;-71
2023/07/17 07:53:44;;;;;;;0.50;0.40;;;19.70;99.90;;;;;;5094255;28;20044;-70
2023/07/17 07:56:09;;;;;;;1.50;0.60;;;19.90;99.90;;;;;;5093156;28;20040;-71
2023/07/17 07:58:35;;;;;;;0.60;0.50;;;19.90;99.90;;;;;;5094348;28;20043;-73
2023/07/17 08:01:01;;;;;;;0.37;0.37;;;20.00;99.90;;;;;;5094150;28;20058;-68
2023/07/17 08:03:27;;;;;;;0.30;0.30;;;20.10;99.90;;;;;;5094240;28;20124;-68
2023/07/17 08:05:54;;;;;;;0.50;0.50;;;20.20;99.90;;;;;;5094079;28;20051;-68
2023/07/17 08:08:19;;;;;;;0.50;0.50;;;20.40;99.90;;;;;;5094078;28;20483;-69
2023/07/17 08:10:45;;;;;;;0.70;0.70;;;20.60;99.90;;;;;;5094533;28;20087;-68
2023/07/17 08:13:11;;;;;;;0.40;0.40;;;20.70;99.90;;;;;;5094328;28;20040;-68
2023/07/17 08:15:36;;;;;;;1.97;0.50;;;20.80;99.90;;;;;;5094085;28;20478;-67
2023/07/17 08:18:02;;;;;;;0.57;0.57;;;20.90;99.90;;;;;;5093986;28;20056;-68
2023/07/17 08:20:29;;;;;;;0.80;0.80;;;21.10;99.90;;;;;;5093690;28;20090;-68
2023/07/17 08:22:55;;;;;;;0.30;0.30;;;21.20;99.90;;;;;;5093871;28;20036;-68
2023/07/17 08:25:22;;;;;;;0.30;0.30;;;21.30;99.90;;;;;;5094206;28;20101;-69
2023/07/17 08:27:48;;;;;;;3.10;0.57;;;21.40;99.90;;;;;;5094239;28;20040;-68
2023/07/17 08:30:14;;;;;;;0.97;0.93;;;21.40;99.90;;;;;;5094031;28;20036;-68
2023/07/17 08:32:40;;;;;;;0.30;0.30;;;21.30;99.90;;;;;;5093132;28;20286;-68
2023/07/17 08:35:05;;;;;;;0.30;0.30;;;21.20;99.90;;;;;;5093602;28;20036;-69
2023/07/17 08:37:31;;;;;;;0.40;0.40;;;21.30;99.90;;;;;;5093655;28;20067;-69
2023/07/17 08:39:57;;;;;;;2.53;0.53;;;21.60;99.90;;;;;;5093427;28;20266;-69
2023/07/17 08:42:22;;;;;;;0.87;0.87;;;21.70;99.90;;;;;;5093630;28;20048;-69
2023/07/17 08:44:50;;;;;;;3.33;0.57;;;21.80;99.90;;;;;;5093529;28;20086;-69
2023/07/17 08:47:16;;;;;;;0.20;0.20;;;21.80;99.90;;;;;;5093572;28;20509;-69
2023/07/17 08:49:44;;;;;;;0.25;0.25;;;21.60;99.90;;;;;;5093277;28;20032;-69
2023/07/17 08:52:12;;;;;;;0.65;0.50;;;21.40;99.90;;;;;;5093500;28;20054;-69
2023/07/17 08:54:38;;;;;;;6.10;0.60;;;21.30;99.90;;;;;;5093630;28;20050;-70
2023/07/17 08:57:04;;;;;;;0.85;0.85;;;21.30;99.90;;;;;;5093425;28;20119;-69
2023/07/17 08:59:32;;;;;;;0.30;0.30;;;21.50;99.90;;;;;;5092145;28;20486;-69
2023/07/17 09:01:58;;;;;;;0.40;0.40;;;21.40;99.90;;;;;;5093198;28;20495;-69
2023/07/17 09:04:25;;;;;;;1.08;0.77;;;21.30;99.90;;;;;;5093357;28;20476;-70
2023/07/17 09:06:51;;;;;;;0.30;0.30;;;21.10;99.90;;;;;;5093468;28;20048;-68
2023/07/17 09:09:18;;;;;;;0.93;0.60;;;21.00;99.90;;;;;;5091861;28;20036;-69
2023/07/17 09:11:44;;;;;;;0.45;0.40;;;21.10;99.90;;;;;;5092752;28;20051;-69
2023/07/17 09:14:10;;;;;;;0.33;0.33;;;21.10;99.90;;;;;;5093263;28;20464;-69
2023/07/17 09:16:39;;;;;;;1.03;0.97;;;21.20;99.90;;;;;;5093040;28;20042;-69
2023/07/17 09:19:04;;;;;;;1.30;0.60;;;21.40;99.90;;;;;;5092899;28;20048;-69
2023/07/17 09:21:30;;;;;;;0.70;0.70;;;21.60;99.90;;;;;;5093101;28;20039;-69
2023/07/17 09:23:56;;;;;;;0.30;0.30;;;21.60;99.90;;;;;;5092920;28;20075;-69
2023/07/17 09:26:24;;;;;;;0.30;0.30;;;21.70;99.90;;;;;;5092981;28;20086;-69
2023/07/17 09:28:57;;;;;;;0.30;0.30;;;21.60;99.90;;;;;;5092825;28;20032;-69
2023/07/17 09:31:27;;;;;;;0.60;0.60;;;21.60;99.90;;;;;;5093074;28;20050;-69
2023/07/17 09:33:54;;;;;;;0.30;0.30;;;21.70;99.90;;;;;;5093064;28;20094;-69
2023/07/17 09:36:21;;;;;;;0.68;0.60;;;21.90;99.90;;;;;;5092640;28;20499;-69
2023/07/17 09:38:57;;;;;;;0.43;0.43;;;22.00;99.90;;;;;;5088633;28;20036;-69
2023/07/17 09:41:28;;;;;;;0.40;0.40;;;21.90;99.90;;;;;;5082978;28;20127;-68
2023/07/17 09:44:06;;;;;;;0.40;0.40;;;21.70;99.90;;;;;;5091743;28;20071;-70
2023/07/17 09:46:34;;;;;;;0.30;0.30;;;21.20;99.90;;;;;;5095575;28;20385;-70
2023/07/17 09:48:59;;;;;;;0.30;0.30;;;20.90;99.90;;;;;;5096019;28;20043;-70
2023/07/17 09:51:25;;;;;;;0.30;0.30;;;20.60;99.90;;;;;;5096488;28;20372;-70
2023/07/17 09:53:51;;;;;;;0.30;0.30;;;20.40;99.90;;;;;;5096703;28;20486;-69
2023/07/17 09:56:19;;;;;;;0.52;0.30;;;20.30;99.90;;;;;;5093975;28;20417;-71
2023/07/17 09:58:47;;;;;;;0.30;0.30;;;20.20;99.90;;;;;;5095709;28;20052;-69
2023/07/17 10:01:19;;;;;;;0.20;0.20;;;20.10;99.90;;;;;;5095860;28;20079;-69
2023/07/17 10:03:46;;;;;;;0.30;0.30;;;20.00;99.90;;;;;;5095498;28;20498;-69
2023/07/17 10:06:14;;;;;;;0.30;0.30;;;20.00;99.90;;;;;;5095355;28;20023;-70
2023/07/17 10:08:42;;;;;;;1.27;0.68;;;19.90;99.90;;;;;;5096276;28;20388;-69
2023/07/17 10:11:08;;;;;;;0.20;0.20;;;19.90;99.90;;;;;;5096042;28;20078;-71
2023/07/17 10:13:34;;;;;;;0.50;0.50;;;20.00;99.90;;;;;;5094714;28;20075;-70
2023/07/17 10:16:00;;;;;;;0.37;0.37;;;20.00;99.90;;;;;;5094990;28;20043;-70
2023/07/17 10:18:26;;;;;;;0.30;0.30;;;20.10;99.90;;;;;;5094972;28;20051;-71
2023/07/17 10:20:53;;;;;;;0.40;0.40;;;20.20;99.90;;;;;;5094749;28;20055;-70
2023/07/17 10:23:26;;;;;;;0.35;0.35;;;20.30;99.90;;;;;;5095115;28;20044;-70
2023/07/17 10:26:05;;;;;;;0.63;0.63;;;20.50;99.90;;;;;;5096023;28;20483;-71
2023/07/17 10:28:32;;;;;;;0.75;0.75;;;20.70;99.90;;;;;;5095749;28;20078;-70
2023/07/17 10:31:09;;;;;;;0.73;0.70;;;20.90;99.90;;;;;;5095676;28;20071;-70
2023/07/17 10:33:38;;;;;;;0.38;0.38;;;21.20;99.90;;;;;;5095658;28;20040;-70
2023/07/17 10:36:05;;;;;;;0.40;0.40;;;21.40;99.90;;;;;;5095611;28;20173;-72
2023/07/17 10:38:36;;;;;;;0.40;0.40;;;21.60;99.90;;;;;;5095486;28;20420;-71
2023/07/17 10:41:25;;;;;;;0.25;0.25;;;21.60;99.90;;;;;;5095818;28;20043;-71
2023/07/17 10:44:00;;;;;;;0.20;0.20;;;21.70;99.90;;;;;;5087423;28;20095;-71
2023/07/17 10:46:30;;;;;;;0.20;0.20;;;21.90;99.90;;;;;;5095458;28;20036;-71
2023/07/17 10:49:10;;;;;;;0.20;0.20;;;22.00;99.90;;;;;;5095021;28;20360;-71
2023/07/17 10:51:37;;;;;;;0.45;0.43;;;21.80;99.90;;;;;;5095406;28;20376;-71
2023/07/17 10:54:03;;;;;;;0.20;0.20;;;21.50;99.90;;;;;;5095490;28;20036;-72
2023/07/17 10:56:32;;;;;;;0.30;0.30;;;21.40;99.90;;;;;;5094625;28;20051;-73
2023/07/17 10:58:59;;;;;;;0.60;0.38;;;21.50;99.90;;;;;;5095244;28;20047;-72
2023/07/17 11:01:24;;;;;;;0.30;0.30;;;21.60;99.90;;;;;;5094808;28;20040;-75
2023/07/17 11:03:50;;;;;;;1.27;0.87;;;21.80;99.90;;;;;;5094561;28;20039;-75
2023/07/17 11:06:17;;;;;;;0.60;0.50;;;22.00;99.90;;;;;;5095325;28;20089;-71
2023/07/17 11:08:48;;;;;;;0.50;0.50;;;22.00;99.90;;;;;;5095079;28;20122;-70
2023/07/17 11:11:14;;;;;;;0.55;0.55;;;22.00;99.90;;;;;;5094803;28;20523;-71
2023/07/17 11:13:44;;;;;;;0.30;0.30;;;21.80;99.90;;;;;;5094988;28;20043;-71
2023/07/17 11:16:10;;;;;;;0.45;0.43;;;21.70;99.90;;;;;;5094765;28;20040;-71
2023/07/17 11:18:46;;;;;;;0.43;0.43;;;21.60;99.90;;;;;;5095174;28;20097;-71
2023/07/17 11:21:13;;;;;;;0.30;0.30;;;21.70;99.90;;;;;;5094851;28;20036;-72
2023/07/17 11:23:53;;;;;;;0.30;0.30;;;22.00;99.90;;;;;;5094736;28;20043;-72
2023/07/17 11:26:34;;;;;;;0.70;0.70;;;22.10;99.90;;;;;;5094807;28;20480;-72
2023/07/17 11:29:02;;;;;;;0.45;0.45;;;22.30;99.90;;;;;;5094534;28;20036;-71
2023/07/17 11:31:28;;;;;;;0.30;0.30;;;22.50;99.90;;;;;;5094654;28;20094;-72
2023/07/17 11:33:58;;;;;;;0.50;0.50;;;22.60;99.90;;;;;;5094631;28;20340;-72
2023/07/17 11:36:39;;;;;;;0.20;0.20;;;22.60;99.90;;;;;;5094709;28;20157;-74
2023/07/17 11:39:22;;;;;;;0.47;0.47;;;22.60;99.90;;;;;;5093629;28;20448;-71
2023/07/17 11:41:52;;;;;;;0.30;0.30;;;22.50;99.90;;;;;;5094163;28;20464;-73
2023/07/17 11:44:23;;;;;;;0.20;0.20;;;22.60;99.90;;;;;;5094076;28;20038;-72
2023/07/17 11:46:58;;;;;;;0.52;0.50;;;22.70;99.90;;;;;;5093311;28;20040;-71
2023/07/17 11:49:25;;;;;;;0.20;0.20;;;22.70;99.90;;;;;;5092105;28;20047;-72
2023/07/17 11:51:51;;;;;;;0.20;0.20;;;22.70;99.90;;;;;;5093254;28;20043;-72
2023/07/17 11:54:17;;;;;;;0.22;0.22;;;22.70;99.90;;;;;;5093235;28;20122;-71
2023/07/17 11:56:45;;;;;;;0.60;0.30;;;22.60;99.90;;;;;;5092653;28;20124;-71
2023/07/17 11:59:20;;;;;;;0.55;0.50;;;22.50;99.90;;;;;;5093210;28;20484;-71
2023/07/17 12:01:47;;;;;;;0.20;0.20;;;22.40;99.90;;;;;;5093458;28;20114;-71
2023/07/17 12:04:24;;;;;;;0.40;0.40;;;22.40;99.90;;;;;;5093973;28;20093;-71
2023/07/17 12:06:52;;;;;;;0.20;0.20;;;22.40;99.90;;;;;;5093643;28;20089;-72
2023/07/17 12:09:18;;;;;;;0.20;0.20;;;22.40;99.90;;;;;;5093232;28;20036;-72
2023/07/17 12:11:44;;;;;;;0.20;0.20;;;22.50;99.90;;;;;;5093877;28;20052;-72
2023/07/17 12:14:11;;;;;;;0.25;0.25;;;22.50;99.90;;;;;;5093718;28;20032;-72
2023/07/17 12:16:37;;;;;;;0.88;0.57;;;22.60;99.90;;;;;;5093525;28;20062;-72
2023/07/17 12:19:03;;;;;;;0.20;0.20;;;22.70;99.90;;;;;;5093809;28;20044;-72
2023/07/17 12:21:29;;;;;;;0.20;0.20;;;22.80;99.90;;;;;;5093859;28;20032;-72
2023/07/17 12:23:54;;;;;;;0.20;0.20;;;23.00;99.90;;;;;;5093934;28;20132;-73
2023/07/17 12:26:20;;;;;;;0.27;0.27;;;23.10;99.90;;;;;;5093472;28;20055;-72
2023/07/17 12:28:45;;;;;;;0.30;0.30;;;23.10;99.90;;;;;;5093476;28;20047;-72
2023/07/17 12:31:11;;;;;;;0.80;0.47;;;23.10;99.90;;;;;;5093650;28;20048;-72
2023/07/17 12:33:37;;;;;;;0.30;0.30;;;23.00;99.90;;;;;;5093125;28;20040;-71
2023/07/17 12:36:02;;;;;;;0.50;0.50;;;22.70;99.90;;;;;;5093589;28;20040;-72
2023/07/17 12:38:28;;;;;;;0.30;0.30;;;22.40;99.90;;;;;;5093553;28;20085;-71
2023/07/17 12:40:54;;;;;;;0.77;0.77;;;22.00;99.90;;;;;;5093502;28;20050;-72
2023/07/17 12:43:19;;;;;;;0.20;0.20;;;21.60;99.90;;;;;;5093112;28;20066;-72
2023/07/17 12:45:45;;;;;;;0.20;0.20;;;21.00;99.90;;;;;;5093472;28;20039;-72